sensor_id;sensor_type;location;lat;lon;timestamp;P1;durP1;ratioP1;P2;durP2;ratioP2
75603;SDS011;64187;51.010;13.792;2022-12-29T00:03:51;2.28;;;1.23;;
75603;SDS011;64187;51.010;13.792;2022-12-29T00:08:50;2.95;;;1.35;;
75603;SDS011;64187;51.010;13.792;2022-12-29T00:13:49;0.98;;;0.75;;
75603;SDS011;64187;51.010;13.792;2022-12-29T00:19:08;1.52;;;0.70;;
75603;SDS011;64187;51.010;13.792;2022-12-29T00:24:27;2.45;;;0.88;;
75603;SDS011;64187;51.010;13.792;2022-12-29T00:29:44;2.17;;;0.82;;
75603;SDS011;64187;51.010;13.792;2022-12-29T00:35:02;1.00;;;0.73;;
75603;SDS011;64187;51.010;13.792;2022-12-29T00:40:07;1.83;;;0.80;;
75603;SDS011;64187;51.010;13.792;2022-12-29T00:45:25;1.38;;;0.63;;
75603;SDS011;64187;51.010;13.792;2022-12-29T00:50:23;2.45;;;0.80;;
75603;SDS011;64187;51.010;13.792;2022-12-29T00:55:22;1.25;;;0.70;;
75603;SDS011;64187;51.010;13.792;2022-12-29T01:00:21;2.10;;;0.80;;
75603;SDS011;64187;51.010;13.792;2022-12-29T01:05:20;1.00;;;0.60;;
75603;SDS011;64187;51.010;13.792;2022-12-29T01:10:19;1.40;;;0.77;;
75603;SDS011;64187;51.010;13.792;2022-12-29T01:15:17;0.95;;;0.75;;
75603;SDS011;64187;51.010;13.792;2022-12-29T01:20:16;1.02;;;0.63;;
75603;SDS011;64187;51.010;13.792;2022-12-29T01:25:15;1.70;;;0.82;;
75603;SDS011;64187;51.010;13.792;2022-12-29T01:30:15;1.90;;;0.90;;
75603;SDS011;64187;51.010;13.792;2022-12-29T01:35:15;1.40;;;0.80;;
75603;SDS011;64187;51.010;13.792;2022-12-29T01:40:15;1.35;;;0.65;;
75603;SDS011;64187;51.010;13.792;2022-12-29T01:45:16;3.28;;;0.70;;
75603;SDS011;64187;51.010;13.792;2022-12-29T01:50:24;1.30;;;0.80;;
75603;SDS011;64187;51.010;13.792;2022-12-29T01:55:27;3.05;;;0.82;;
75603;SDS011;64187;51.010;13.792;2022-12-29T02:00:29;1.80;;;0.77;;
75603;SDS011;64187;51.010;13.792;2022-12-29T02:05:32;2.03;;;1.05;;
75603;SDS011;64187;51.010;13.792;2022-12-29T02:10:36;1.27;;;0.80;;
75603;SDS011;64187;51.010;13.792;2022-12-29T02:31:43;0.98;;;0.80;;
75603;SDS011;64187;51.010;13.792;2022-12-29T02:41:58;1.70;;;0.70;;
75603;SDS011;64187;51.010;13.792;2022-12-29T02:52:22;2.05;;;0.80;;
75603;SDS011;64187;51.010;13.792;2022-12-29T03:13:01;1.42;;;0.75;;
75603;SDS011;64187;51.010;13.792;2022-12-29T03:18:31;1.92;;;0.70;;
75603;SDS011;64187;51.010;13.792;2022-12-29T03:23:33;1.55;;;0.88;;
75603;SDS011;64187;51.010;13.792;2022-12-29T03:28:38;1.02;;;0.60;;
75603;SDS011;64187;51.010;13.792;2022-12-29T03:33:46;1.90;;;0.82;;
75603;SDS011;64187;51.010;13.792;2022-12-29T03:39:02;2.47;;;0.85;;
75603;SDS011;64187;51.010;13.792;2022-12-29T03:44:07;3.40;;;0.73;;
75603;SDS011;64187;51.010;13.792;2022-12-29T03:49:06;1.83;;;0.57;;
75603;SDS011;64187;51.010;13.792;2022-12-29T03:54:05;1.63;;;0.85;;
75603;SDS011;64187;51.010;13.792;2022-12-29T03:59:04;0.70;;;0.70;;
75603;SDS011;64187;51.010;13.792;2022-12-29T04:04:09;1.80;;;1.10;;
75603;SDS011;64187;51.010;13.792;2022-12-29T04:09:09;2.10;;;0.93;;
75603;SDS011;64187;51.010;13.792;2022-12-29T04:14:15;2.22;;;0.88;;
75603;SDS011;64187;51.010;13.792;2022-12-29T04:19:16;3.50;;;0.82;;
75603;SDS011;64187;51.010;13.792;2022-12-29T04:24:16;1.67;;;0.73;;
75603;SDS011;64187;51.010;13.792;2022-12-29T04:29:18;1.42;;;0.65;;
75603;SDS011;64187;51.010;13.792;2022-12-29T04:34:38;1.13;;;0.60;;
75603;SDS011;64187;51.010;13.792;2022-12-29T04:39:37;3.25;;;1.30;;
75603;SDS011;64187;51.010;13.792;2022-12-29T04:44:37;1.50;;;0.90;;
75603;SDS011;64187;51.010;13.792;2022-12-29T04:49:48;1.40;;;1.02;;
75603;SDS011;64187;51.010;13.792;2022-12-29T04:55:11;1.15;;;0.93;;
75603;SDS011;64187;51.010;13.792;2022-12-29T05:00:11;1.98;;;1.25;;
75603;SDS011;64187;51.010;13.792;2022-12-29T05:05:11;1.67;;;0.80;;
75603;SDS011;64187;51.010;13.792;2022-12-29T05:10:13;1.38;;;0.90;;
75603;SDS011;64187;51.010;13.792;2022-12-29T05:15:14;1.10;;;0.70;;
75603;SDS011;64187;51.010;13.792;2022-12-29T05:20:14;1.88;;;0.55;;
75603;SDS011;64187;51.010;13.792;2022-12-29T05:25:14;1.50;;;0.60;;
75603;SDS011;64187;51.010;13.792;2022-12-29T05:30:36;0.88;;;0.70;;
75603;SDS011;64187;51.010;13.792;2022-12-29T05:35:35;5.63;;;1.00;;
75603;SDS011;64187;51.010;13.792;2022-12-29T05:40:34;2.55;;;0.70;;
75603;SDS011;64187;51.010;13.792;2022-12-29T05:45:37;2.95;;;0.90;;
75603;SDS011;64187;51.010;13.792;2022-12-29T05:51:00;2.30;;;0.70;;
75603;SDS011;64187;51.010;13.792;2022-12-29T05:56:09;1.63;;;0.70;;
75603;SDS011;64187;51.010;13.792;2022-12-29T06:01:08;2.92;;;0.80;;
75603;SDS011;64187;51.010;13.792;2022-12-29T06:06:08;1.58;;;0.45;;
75603;SDS011;64187;51.010;13.792;2022-12-29T06:11:07;1.35;;;0.52;;
75603;SDS011;64187;51.010;13.792;2022-12-29T06:16:07;2.60;;;0.75;;
75603;SDS011;64187;51.010;13.792;2022-12-29T06:21:08;1.23;;;0.40;;
75603;SDS011;64187;51.010;13.792;2022-12-29T06:26:07;1.83;;;0.60;;
75603;SDS011;64187;51.010;13.792;2022-12-29T06:31:08;1.48;;;0.60;;
75603;SDS011;64187;51.010;13.792;2022-12-29T06:36:08;1.30;;;0.52;;
75603;SDS011;64187;51.010;13.792;2022-12-29T06:41:07;1.30;;;0.70;;
75603;SDS011;64187;51.010;13.792;2022-12-29T06:46:06;2.72;;;0.60;;
75603;SDS011;64187;51.010;13.792;2022-12-29T06:51:04;1.35;;;0.73;;
75603;SDS011;64187;51.010;13.792;2022-12-29T06:56:03;1.15;;;0.70;;
75603;SDS011;64187;51.010;13.792;2022-12-29T07:01:02;1.38;;;0.70;;
75603;SDS011;64187;51.010;13.792;2022-12-29T07:06:01;1.35;;;0.60;;
75603;SDS011;64187;51.010;13.792;2022-12-29T07:11:00;2.40;;;0.65;;
75603;SDS011;64187;51.010;13.792;2022-12-29T07:15:59;1.02;;;0.75;;
75603;SDS011;64187;51.010;13.792;2022-12-29T07:21:03;0.95;;;0.57;;
75603;SDS011;64187;51.010;13.792;2022-12-29T07:26:03;0.75;;;0.40;;
75603;SDS011;64187;51.010;13.792;2022-12-29T07:31:04;0.45;;;0.35;;
75603;SDS011;64187;51.010;13.792;2022-12-29T07:36:04;1.50;;;0.70;;
75603;SDS011;64187;51.010;13.792;2022-12-29T07:41:03;0.95;;;0.60;;
75603;SDS011;64187;51.010;13.792;2022-12-29T07:46:02;1.35;;;0.60;;
75603;SDS011;64187;51.010;13.792;2022-12-29T07:51:02;1.33;;;0.65;;
75603;SDS011;64187;51.010;13.792;2022-12-29T07:56:00;1.52;;;0.43;;
75603;SDS011;64187;51.010;13.792;2022-12-29T08:00:59;1.67;;;0.63;;
75603;SDS011;64187;51.010;13.792;2022-12-29T08:05:58;0.70;;;0.40;;
75603;SDS011;64187;51.010;13.792;2022-12-29T08:10:57;1.15;;;0.70;;
75603;SDS011;64187;51.010;13.792;2022-12-29T08:15:57;4.00;;;1.40;;
75603;SDS011;64187;51.010;13.792;2022-12-29T08:21:01;4.07;;;1.98;;
75603;SDS011;64187;51.010;13.792;2022-12-29T08:26:02;3.28;;;1.70;;
75603;SDS011;64187;51.010;13.792;2022-12-29T08:31:02;4.20;;;2.22;;
75603;SDS011;64187;51.010;13.792;2022-12-29T08:36:02;3.10;;;1.67;;
75603;SDS011;64187;51.010;13.792;2022-12-29T08:41:02;2.80;;;1.25;;
75603;SDS011;64187;51.010;13.792;2022-12-29T08:46:01;3.72;;;1.70;;
75603;SDS011;64187;51.010;13.792;2022-12-29T08:51:00;1.88;;;1.27;;
75603;SDS011;64187;51.010;13.792;2022-12-29T08:55:59;1.63;;;0.80;;
75603;SDS011;64187;51.010;13.792;2022-12-29T09:01:11;2.05;;;0.93;;
75603;SDS011;64187;51.010;13.792;2022-12-29T09:06:10;1.27;;;0.50;;
75603;SDS011;64187;51.010;13.792;2022-12-29T09:11:13;1.42;;;0.85;;
75603;SDS011;64187;51.010;13.792;2022-12-29T09:16:16;1.52;;;0.70;;
75603;SDS011;64187;51.010;13.792;2022-12-29T09:21:16;1.02;;;0.75;;
75603;SDS011;64187;51.010;13.792;2022-12-29T09:26:15;2.15;;;0.75;;
75603;SDS011;64187;51.010;13.792;2022-12-29T09:31:14;2.65;;;0.70;;
75603;SDS011;64187;51.010;13.792;2022-12-29T09:36:13;2.13;;;0.82;;
75603;SDS011;64187;51.010;13.792;2022-12-29T09:41:13;1.17;;;0.63;;
75603;SDS011;64187;51.010;13.792;2022-12-29T09:46:24;4.85;;;1.10;;
75603;SDS011;64187;51.010;13.792;2022-12-29T09:51:25;1.38;;;0.70;;
75603;SDS011;64187;51.010;13.792;2022-12-29T09:56:26;1.67;;;0.70;;
75603;SDS011;64187;51.010;13.792;2022-12-29T10:01:28;1.10;;;0.73;;
75603;SDS011;64187;51.010;13.792;2022-12-29T10:06:46;2.00;;;0.75;;
75603;SDS011;64187;51.010;13.792;2022-12-29T10:12:17;2.00;;;0.80;;
75603;SDS011;64187;51.010;13.792;2022-12-29T10:22:43;1.35;;;0.70;;
75603;SDS011;64187;51.010;13.792;2022-12-29T10:27:43;1.20;;;0.60;;
75603;SDS011;64187;51.010;13.792;2022-12-29T10:32:58;1.20;;;0.60;;
75603;SDS011;64187;51.010;13.792;2022-12-29T10:38:03;0.88;;;0.60;;
75603;SDS011;64187;51.010;13.792;2022-12-29T10:48:28;0.60;;;0.50;;
75603;SDS011;64187;51.010;13.792;2022-12-29T10:53:51;1.20;;;0.70;;
75603;SDS011;64187;51.010;13.792;2022-12-29T10:58:54;0.93;;;0.52;;
75603;SDS011;64187;51.010;13.792;2022-12-29T11:04:00;0.80;;;0.50;;
75603;SDS011;64187;51.010;13.792;2022-12-29T11:09:18;1.85;;;1.35;;
75603;SDS011;64187;51.010;13.792;2022-12-29T11:14:39;1.23;;;0.85;;
75603;SDS011;64187;51.010;13.792;2022-12-29T11:19:39;0.65;;;0.50;;
75603;SDS011;64187;51.010;13.792;2022-12-29T11:24:43;3.13;;;0.85;;
75603;SDS011;64187;51.010;13.792;2022-12-29T11:29:44;2.13;;;0.60;;
75603;SDS011;64187;51.010;13.792;2022-12-29T11:34:43;1.70;;;0.70;;
75603;SDS011;64187;51.010;13.792;2022-12-29T11:44:55;1.73;;;0.95;;
75603;SDS011;64187;51.010;13.792;2022-12-29T11:49:55;1.67;;;0.60;;
75603;SDS011;64187;51.010;13.792;2022-12-29T11:55:03;1.60;;;0.70;;
75603;SDS011;64187;51.010;13.792;2022-12-29T12:00:18;1.50;;;0.70;;
75603;SDS011;64187;51.010;13.792;2022-12-29T12:05:40;3.35;;;0.82;;
75603;SDS011;64187;51.010;13.792;2022-12-29T12:10:44;3.10;;;0.70;;
75603;SDS011;64187;51.010;13.792;2022-12-29T12:15:59;4.38;;;1.45;;
75603;SDS011;64187;51.010;13.792;2022-12-29T12:59:01;1.50;;;0.73;;
75603;SDS011;64187;51.010;13.792;2022-12-29T13:14:57;1.33;;;0.68;;
75603;SDS011;64187;51.010;13.792;2022-12-29T13:20:53;2.55;;;1.00;;
75603;SDS011;64187;51.010;13.792;2022-12-29T13:25:59;2.05;;;0.57;;
75603;SDS011;64187;51.010;13.792;2022-12-29T13:46:42;2.22;;;0.90;;
75603;SDS011;64187;51.010;13.792;2022-12-29T13:51:49;1.85;;;1.05;;
75603;SDS011;64187;51.010;13.792;2022-12-29T14:02:36;3.85;;;1.13;;
75603;SDS011;64187;51.010;13.792;2022-12-29T14:07:37;1.05;;;0.60;;
75603;SDS011;64187;51.010;13.792;2022-12-29T14:12:40;1.80;;;1.00;;
75603;SDS011;64187;51.010;13.792;2022-12-29T14:17:41;3.38;;;0.98;;
75603;SDS011;64187;51.010;13.792;2022-12-29T14:22:54;2.17;;;1.30;;
75603;SDS011;64187;51.010;13.792;2022-12-29T14:28:22;2.00;;;1.55;;
75603;SDS011;64187;51.010;13.792;2022-12-29T14:33:25;1.55;;;0.80;;
75603;SDS011;64187;51.010;13.792;2022-12-29T14:38:28;1.30;;;1.05;;
75603;SDS011;64187;51.010;13.792;2022-12-29T14:43:28;1.52;;;0.75;;
75603;SDS011;64187;51.010;13.792;2022-12-29T14:53:41;2.67;;;0.93;;
75603;SDS011;64187;51.010;13.792;2022-12-29T14:58:51;1.80;;;0.65;;
75603;SDS011;64187;51.010;13.792;2022-12-29T15:03:57;1.95;;;0.90;;
75603;SDS011;64187;51.010;13.792;2022-12-29T15:09:00;3.60;;;1.02;;
75603;SDS011;64187;51.010;13.792;2022-12-29T15:14:25;2.40;;;0.85;;
75603;SDS011;64187;51.010;13.792;2022-12-29T15:19:36;3.20;;;1.35;;
75603;SDS011;64187;51.010;13.792;2022-12-29T15:24:35;1.65;;;0.82;;
75603;SDS011;64187;51.010;13.792;2022-12-29T15:29:41;1.45;;;0.70;;
75603;SDS011;64187;51.010;13.792;2022-12-29T15:34:43;1.95;;;0.75;;
75603;SDS011;64187;51.010;13.792;2022-12-29T15:39:43;1.90;;;1.17;;
75603;SDS011;64187;51.010;13.792;2022-12-29T15:44:42;1.50;;;0.85;;
75603;SDS011;64187;51.010;13.792;2022-12-29T15:49:42;1.40;;;0.70;;
75603;SDS011;64187;51.010;13.792;2022-12-29T15:54:43;1.90;;;0.85;;
75603;SDS011;64187;51.010;13.792;2022-12-29T15:59:45;3.67;;;1.80;;
75603;SDS011;64187;51.010;13.792;2022-12-29T16:04:45;3.40;;;1.10;;
75603;SDS011;64187;51.010;13.792;2022-12-29T16:10:05;2.17;;;0.80;;
75603;SDS011;64187;51.010;13.792;2022-12-29T16:15:21;2.00;;;0.55;;
75603;SDS011;64187;51.010;13.792;2022-12-29T16:20:25;2.35;;;0.63;;
75603;SDS011;64187;51.010;13.792;2022-12-29T16:25:33;0.88;;;0.65;;
75603;SDS011;64187;51.010;13.792;2022-12-29T16:41:04;2.65;;;0.60;;
75603;SDS011;64187;51.010;13.792;2022-12-29T16:51:05;1.65;;;0.60;;
75603;SDS011;64187;51.010;13.792;2022-12-29T16:56:15;2.33;;;0.60;;
75603;SDS011;64187;51.010;13.792;2022-12-29T17:01:17;2.50;;;0.70;;
75603;SDS011;64187;51.010;13.792;2022-12-29T17:06:20;1.23;;;0.55;;
75603;SDS011;64187;51.010;13.792;2022-12-29T17:11:30;1.05;;;0.70;;
75603;SDS011;64187;51.010;13.792;2022-12-29T17:17:00;1.83;;;0.60;;
75603;SDS011;64187;51.010;13.792;2022-12-29T17:22:00;1.00;;;0.50;;
75603;SDS011;64187;51.010;13.792;2022-12-29T17:27:00;0.88;;;0.35;;
75603;SDS011;64187;51.010;13.792;2022-12-29T17:31:59;1.15;;;0.50;;
75603;SDS011;64187;51.010;13.792;2022-12-29T17:37:00;1.13;;;0.60;;
75603;SDS011;64187;51.010;13.792;2022-12-29T17:41:58;1.48;;;0.60;;
75603;SDS011;64187;51.010;13.792;2022-12-29T17:46:57;0.90;;;0.65;;
75603;SDS011;64187;51.010;13.792;2022-12-29T17:51:56;2.30;;;0.70;;
75603;SDS011;64187;51.010;13.792;2022-12-29T17:56:55;1.75;;;0.70;;
75603;SDS011;64187;51.010;13.792;2022-12-29T18:01:54;1.23;;;0.60;;
75603;SDS011;64187;51.010;13.792;2022-12-29T18:06:53;1.35;;;0.77;;
75603;SDS011;64187;51.010;13.792;2022-12-29T18:11:53;2.15;;;0.80;;
75603;SDS011;64187;51.010;13.792;2022-12-29T18:16:52;2.45;;;0.70;;
75603;SDS011;64187;51.010;13.792;2022-12-29T18:21:51;1.17;;;0.93;;
75603;SDS011;64187;51.010;13.792;2022-12-29T18:26:49;1.30;;;1.00;;
75603;SDS011;64187;51.010;13.792;2022-12-29T18:31:48;2.40;;;1.00;;
75603;SDS011;64187;51.010;13.792;2022-12-29T18:36:47;1.20;;;0.80;;
75603;SDS011;64187;51.010;13.792;2022-12-29T18:41:46;3.47;;;1.38;;
75603;SDS011;64187;51.010;13.792;2022-12-29T18:46:44;3.95;;;1.52;;
75603;SDS011;64187;51.010;13.792;2022-12-29T18:51:43;2.50;;;1.13;;
75603;SDS011;64187;51.010;13.792;2022-12-29T18:56:42;2.67;;;1.30;;
75603;SDS011;64187;51.010;13.792;2022-12-29T19:01:41;3.80;;;1.65;;
75603;SDS011;64187;51.010;13.792;2022-12-29T19:06:40;4.43;;;2.88;;
75603;SDS011;64187;51.010;13.792;2022-12-29T19:11:40;5.07;;;2.03;;
75603;SDS011;64187;51.010;13.792;2022-12-29T19:16:39;3.88;;;1.95;;
75603;SDS011;64187;51.010;13.792;2022-12-29T19:21:38;3.83;;;2.08;;
75603;SDS011;64187;51.010;13.792;2022-12-29T19:26:38;5.50;;;2.50;;
75603;SDS011;64187;51.010;13.792;2022-12-29T19:31:38;3.15;;;2.13;;
75603;SDS011;64187;51.010;13.792;2022-12-29T19:36:37;5.57;;;3.58;;
75603;SDS011;64187;51.010;13.792;2022-12-29T19:41:36;7.20;;;4.40;;
75603;SDS011;64187;51.010;13.792;2022-12-29T19:46:34;11.90;;;6.32;;
75603;SDS011;64187;51.010;13.792;2022-12-29T19:51:33;10.13;;;5.40;;
75603;SDS011;64187;51.010;13.792;2022-12-29T19:56:32;13.27;;;7.43;;
75603;SDS011;64187;51.010;13.792;2022-12-29T20:01:31;10.00;;;6.15;;
75603;SDS011;64187;51.010;13.792;2022-12-29T20:06:30;8.23;;;4.20;;
75603;SDS011;64187;51.010;13.792;2022-12-29T20:11:29;6.68;;;3.38;;
75603;SDS011;64187;51.010;13.792;2022-12-29T20:16:28;7.47;;;3.67;;
75603;SDS011;64187;51.010;13.792;2022-12-29T20:21:27;8.75;;;3.65;;
75603;SDS011;64187;51.010;13.792;2022-12-29T20:26:26;6.38;;;3.72;;
75603;SDS011;64187;51.010;13.792;2022-12-29T20:31:30;5.85;;;3.03;;
75603;SDS011;64187;51.010;13.792;2022-12-29T20:36:32;5.18;;;2.88;;
75603;SDS011;64187;51.010;13.792;2022-12-29T20:41:32;5.20;;;2.83;;
75603;SDS011;64187;51.010;13.792;2022-12-29T20:46:31;5.60;;;2.97;;
75603;SDS011;64187;51.010;13.792;2022-12-29T20:51:40;8.60;;;1.25;;
75603;SDS011;64187;51.010;13.792;2022-12-29T20:57:02;4.55;;;1.73;;
75603;SDS011;64187;51.010;13.792;2022-12-29T21:02:01;1.75;;;0.77;;
75603;SDS011;64187;51.010;13.792;2022-12-29T21:07:00;1.58;;;0.77;;
75603;SDS011;64187;51.010;13.792;2022-12-29T21:11:59;2.30;;;1.13;;
75603;SDS011;64187;51.010;13.792;2022-12-29T21:16:58;1.55;;;0.60;;
75603;SDS011;64187;51.010;13.792;2022-12-29T21:21:56;1.23;;;0.43;;
75603;SDS011;64187;51.010;13.792;2022-12-29T21:26:55;1.77;;;0.50;;
75603;SDS011;64187;51.010;13.792;2022-12-29T21:31:54;1.75;;;0.73;;
75603;SDS011;64187;51.010;13.792;2022-12-29T21:36:58;0.80;;;0.40;;
75603;SDS011;64187;51.010;13.792;2022-12-29T21:41:57;1.75;;;0.57;;
75603;SDS011;64187;51.010;13.792;2022-12-29T21:46:58;1.85;;;0.63;;
75603;SDS011;64187;51.010;13.792;2022-12-29T21:51:56;1.08;;;0.50;;
75603;SDS011;64187;51.010;13.792;2022-12-29T21:56:55;0.65;;;0.38;;
75603;SDS011;64187;51.010;13.792;2022-12-29T22:01:54;1.60;;;0.55;;
75603;SDS011;64187;51.010;13.792;2022-12-29T22:07:12;3.35;;;0.80;;
75603;SDS011;64187;51.010;13.792;2022-12-29T22:12:30;1.70;;;0.40;;
75603;SDS011;64187;51.010;13.792;2022-12-29T22:17:49;0.77;;;0.40;;
75603;SDS011;64187;51.010;13.792;2022-12-29T22:22:49;0.82;;;0.40;;
75603;SDS011;64187;51.010;13.792;2022-12-29T22:27:48;0.80;;;0.30;;
75603;SDS011;64187;51.010;13.792;2022-12-29T22:32:56;2.15;;;0.43;;
75603;SDS011;64187;51.010;13.792;2022-12-29T22:37:56;1.38;;;0.82;;
75603;SDS011;64187;51.010;13.792;2022-12-29T22:42:54;1.55;;;0.38;;
75603;SDS011;64187;51.010;13.792;2022-12-29T22:47:53;0.80;;;0.30;;
75603;SDS011;64187;51.010;13.792;2022-12-29T22:52:52;2.90;;;0.50;;
75603;SDS011;64187;51.010;13.792;2022-12-29T22:57:51;1.45;;;0.20;;
75603;SDS011;64187;51.010;13.792;2022-12-29T23:02:50;2.33;;;0.47;;
75603;SDS011;64187;51.010;13.792;2022-12-29T23:07:49;1.15;;;0.47;;
75603;SDS011;64187;51.010;13.792;2022-12-29T23:12:48;2.00;;;0.60;;
75603;SDS011;64187;51.010;13.792;2022-12-29T23:17:46;3.90;;;0.52;;
75603;SDS011;64187;51.010;13.792;2022-12-29T23:22:45;2.88;;;0.80;;
75603;SDS011;64187;51.010;13.792;2022-12-29T23:27:44;1.02;;;0.57;;
75603;SDS011;64187;51.010;13.792;2022-12-29T23:32:43;2.58;;;0.68;;
75603;SDS011;64187;51.010;13.792;2022-12-29T23:37:42;1.90;;;0.50;;
75603;SDS011;64187;51.010;13.792;2022-12-29T23:42:40;3.63;;;1.00;;
75603;SDS011;64187;51.010;13.792;2022-12-29T23:47:39;2.88;;;0.60;;
75603;SDS011;64187;51.010;13.792;2022-12-29T23:52:38;2.30;;;0.60;;
75603;SDS011;64187;51.010;13.792;2022-12-29T23:57:37;1.20;;;0.43;;
